Time;durP1;ratioP1;P1;durP2;ratioP2;P2;SDS_P1;SDS_P2;PMS_P1;PMS_P2;Temp;Humidity;BMP_temperature;BMP_pressure;BME280_temperature;BME280_humidity;BME280_pressure;Samples;Min_cycle;Max_cycle;Signal;HPM_P1;HPM_P2
2022/09/18 00:00:50;;;;;;;0.73;0.63;;;;;;;8.40;100.00;96259.09;5042347;28;20211;-68
2022/09/18 00:03:16;;;;;;;0.90;0.77;;;;;;;8.25;100.00;96252.84;5042308;28;20202;-68
2022/09/18 00:05:43;;;;;;;2.87;0.90;;;;;;;8.39;100.00;96253.03;5042480;28;20204;-68
2022/09/18 00:08:11;;;;;;;2.93;0.90;;;;;;;8.39;100.00;96255.66;5040344;28;20217;-68
2022/09/18 00:10:41;;;;;;;2.43;0.63;;;;;;;8.51;100.00;96263.06;5041568;28;20201;-68
2022/09/18 00:13:09;;;;;;;1.27;0.80;;;;;;;8.46;100.00;96261.06;5042596;28;20243;-68
2022/09/18 00:15:36;;;;;;;1.97;0.80;;;;;;;8.51;100.00;96259.59;5042777;28;20270;-68
2022/09/18 00:18:03;;;;;;;1.87;0.67;;;;;;;8.54;100.00;96259.25;5041236;28;20220;-68
2022/09/18 00:20:30;;;;;;;1.47;1.10;;;;;;;8.58;100.00;96265.84;5043419;28;20204;-68
2022/09/18 00:22:56;;;;;;;3.17;1.03;;;;;;;8.59;100.00;96256.97;5041458;28;20232;-68
2022/09/18 00:25:24;;;;;;;1.73;1.40;;;;;;;8.64;100.00;96260.75;5042015;28;20212;-68
2022/09/18 00:27:50;;;;;;;3.17;0.80;;;;;;;8.64;100.00;96263.38;5041716;28;20229;-68
2022/09/18 00:30:17;;;;;;;6.40;0.90;;;;;;;8.63;100.00;96266.97;5042644;28;20197;-68
2022/09/18 00:32:43;;;;;;;4.67;1.07;;;;;;;8.62;100.00;96267.97;5041490;28;20240;-68
2022/09/18 00:35:10;;;;;;;3.73;0.80;;;;;;;8.65;100.00;96264.19;5042422;28;20232;-68
2022/09/18 00:37:36;;;;;;;2.13;0.80;;;;;;;8.64;100.00;96260.75;5041894;28;20201;-68
2022/09/18 00:40:03;;;;;;;1.30;1.00;;;;;;;8.79;100.00;96269.59;5042788;28;20201;-68
2022/09/18 00:42:31;;;;;;;4.30;0.97;;;;;;;8.91;100.00;96267.44;5040850;28;20205;-68
2022/09/18 00:44:57;;;;;;;4.93;0.80;;;;;;;8.89;100.00;96264.19;5041167;28;21524;-68
2022/09/18 00:47:27;;;;;;;2.87;0.80;;;;;;;8.98;100.00;96252.66;5042132;28;20201;-68
2022/09/18 00:50:01;;;;;;;3.77;1.20;;;;;;;8.93;100.00;96254.97;5041480;28;20220;-68
2022/09/18 00:52:31;;;;;;;6.03;1.40;;;;;;;9.03;100.00;96251.19;5041716;28;20700;-68
2022/09/18 00:55:02;;;;;;;3.03;1.40;;;;;;;8.97;100.00;96246.56;5041506;28;20205;-68
2022/09/18 00:57:33;;;;;;;5.87;1.23;;;;;;;9.08;100.00;96254.13;5040808;28;20228;-69
2022/09/18 01:00:05;;;;;;;4.00;1.17;;;;;;;9.02;100.00;96251.34;5036322;28;20212;-70
2022/09/18 01:02:32;;;;;;;1.00;0.77;;;;;;;9.01;100.00;96247.88;5036193;28;20212;-69
2022/09/18 01:04:58;;;;;;;2.20;1.07;;;;;;;9.04;100.00;96252.81;5036063;28;20201;-69
2022/09/18 01:07:35;;;;;;;4.37;1.13;;;;;;;9.19;100.00;96251.16;5032703;28;20223;-69
2022/09/18 01:10:13;;;;;;;1.50;0.60;;;;;;;9.16;100.00;96249.69;5036449;28;20794;-70
2022/09/18 01:12:46;;;;;;;5.53;1.20;;;;;;;9.17;100.00;96239.97;5035569;28;20228;-70
2022/09/18 01:15:23;;;;;;;4.10;1.10;;;;;;;9.20;100.00;96250.16;5035897;28;20205;-69
2022/09/18 01:17:59;;;;;;;0.70;0.60;;;;;;;9.19;100.00;96261.69;5036011;28;20228;-69
2022/09/18 01:20:40;;;;;;;4.57;1.30;;;;;;;9.19;100.00;96251.16;5038397;28;20651;-71
2022/09/18 01:23:21;;;;;;;1.87;0.93;;;;;;;9.30;100.00;96253.41;5039341;28;20677;-70
2022/09/18 01:26:02;;;;;;;4.57;1.30;;;;;;;9.25;100.00;96261.81;5040118;28;20212;-70
2022/09/18 01:28:38;;;;;;;3.93;1.10;;;;;;;9.37;100.00;96254.41;5039782;28;20224;-70
2022/09/18 01:31:10;;;;;;;6.67;1.17;;;;;;;9.35;100.00;96253.72;5040002;28;20568;-70
2022/09/18 01:33:46;;;;;;;2.77;0.83;;;;;;;9.39;100.00;96255.84;5038884;28;20724;-69
2022/09/18 01:36:17;;;;;;;1.70;1.03;;;;;;;9.39;100.00;96260.28;5039195;28;20680;-71
2022/09/18 01:38:48;;;;;;;3.70;0.93;;;;;;;9.33;100.00;96255.69;5039120;28;20232;-69
2022/09/18 01:41:20;;;;;;;1.37;1.00;;;;;;;9.37;100.00;96259.66;5040405;28;20193;-69
2022/09/18 01:43:50;;;;;;;5.20;1.10;;;;;;;9.45;100.00;96254.34;5038931;28;20575;-72
2022/09/18 01:46:19;;;;;;;1.47;0.93;;;;;;;9.36;100.00;96253.56;5039814;28;20201;-70
2022/09/18 01:48:52;;;;;;;2.77;1.00;;;;;;;9.38;100.00;96250.75;5039110;28;20236;-69
2022/09/18 01:51:22;;;;;;;3.80;1.10;;;;;;;9.33;100.00;96250.44;5039333;28;20201;-69
2022/09/18 01:53:54;;;;;;;1.43;1.00;;;;;;;9.36;100.00;96250.94;5038338;28;20343;-70
2022/09/18 01:56:25;;;;;;;3.30;1.00;;;;;;;9.41;100.00;96250.44;5038312;28;21177;-70
2022/09/18 01:58:56;;;;;;;3.80;0.90;;;;;;;9.36;100.00;96248.28;5038525;28;20225;-69
2022/09/18 02:01:28;;;;;;;1.73;1.20;;;;;;;9.46;100.00;96245.47;5039555;28;20292;-69
2022/09/18 02:03:58;;;;;;;3.17;1.00;;;;;;;9.46;100.00;96248.94;5039058;28;21335;-70
2022/09/18 02:06:29;;;;;;;3.23;1.10;;;;;;;9.45;100.00;96236.75;5039712;28;20205;-70
2022/09/18 02:08:59;;;;;;;1.57;1.10;;;;;;;9.39;100.00;96252.41;5035525;28;20225;-70
2022/09/18 02:11:25;;;;;;;4.57;1.40;;;;;;;9.42;100.00;96249.41;5040266;28;20201;-71
2022/09/18 02:13:59;;;;;;;2.27;1.03;;;;;;;9.50;100.00;96234.44;5038479;28;20639;-69
2022/09/18 02:16:30;;;;;;;3.23;0.90;;;;;;;9.48;100.00;96240.84;5038763;28;20213;-71
2022/09/18 02:18:59;;;;;;;1.70;0.87;;;;;;;9.45;100.00;96226.25;5035991;28;20228;-69
2022/09/18 02:21:28;;;;;;;1.13;0.80;;;;;;;9.39;100.00;96226.09;5038640;28;20618;-70
2022/09/18 02:24:00;;;;;;;4.77;0.90;;;;;;;9.38;100.00;96235.81;5037651;28;20205;-69
2022/09/18 02:26:26;;;;;;;5.50;1.00;;;;;;;9.44;100.00;96231.66;5039077;28;20216;-71
2022/09/18 02:28:55;;;;;;;2.50;1.23;;;;;;;9.39;100.00;96236.63;5039131;28;20232;-70
2022/09/18 02:31:22;;;;;;;2.23;0.97;;;;;;;9.33;100.00;96234.66;5038171;28;20209;-69
2022/09/18 02:33:49;;;;;;;3.73;1.13;;;;;;;9.35;100.00;96241.38;5037775;28;20229;-70
2022/09/18 02:36:30;;;;;;;2.63;1.30;;;;;;;9.39;100.00;96237.44;5038664;28;20197;-69
2022/09/18 02:39:08;;;;;;;5.03;1.20;;;;;;;9.28;100.00;96239.63;5038061;28;20225;-69
2022/09/18 02:41:43;;;;;;;1.10;0.90;;;;;;;9.27;100.00;96233.53;5038383;28;20665;-70
2022/09/18 02:44:19;;;;;;;2.50;1.13;;;;;;;9.33;100.00;96232.03;5037709;28;20200;-69
2022/09/18 02:46:56;;;;;;;11.33;2.70;;;;;;;9.25;100.00;96238.16;5038355;28;20205;-69
2022/09/18 02:49:32;;;;;;;1.70;0.80;;;;;;;9.19;100.00;96232.75;5038652;28;20229;-70
2022/09/18 02:52:04;;;;;;;1.90;1.23;;;;;;;9.18;100.00;96237.16;5037856;28;20196;-69
2022/09/18 02:54:37;;;;;;;3.90;1.27;;;;;;;9.22;100.00;96240.28;5037981;28;20222;-69
2022/09/18 02:57:09;;;;;;;1.67;1.10;;;;;;;9.21;100.00;96243.91;5038595;28;20209;-69
2022/09/18 02:59:41;;;;;;;2.23;1.17;;;;;;;9.18;100.00;96242.44;5038084;28;20816;-69
2022/09/18 03:02:08;;;;;;;1.30;1.00;;;;;;;9.09;100.00;96245.25;5037782;28;20224;-69
2022/09/18 03:04:35;;;;;;;3.20;1.10;;;;;;;9.07;100.00;96244.59;5037867;28;20205;-70
2022/09/18 03:07:01;;;;;;;0.93;0.77;;;;;;;9.08;100.00;96242.81;5037501;28;20228;-71
2022/09/18 03:09:28;;;;;;;0.83;0.70;;;;;;;9.12;100.00;96226.50;5034996;28;20221;-69
2022/09/18 03:11:55;;;;;;;3.40;1.00;;;;;;;9.15;100.00;96234.06;5037293;28;20666;-70
2022/09/18 03:14:22;;;;;;;1.33;0.97;;;;;;;9.18;100.00;96233.75;5037271;28;20232;-70
2022/09/18 03:16:50;;;;;;;1.20;0.80;;;;;;;9.26;100.00;96233.72;5037665;28;20220;-70
2022/09/18 03:19:16;;;;;;;1.43;0.70;;;;;;;9.20;100.00;96231.75;5037787;28;20221;-69
2022/09/18 03:21:43;;;;;;;0.50;0.50;;;;;;;9.27;100.00;96228.28;5038070;28;20205;-69
2022/09/18 03:24:09;;;;;;;2.47;0.87;;;;;;;9.35;100.00;96228.25;5037632;28;20194;-69
2022/09/18 03:26:36;;;;;;;1.27;0.47;;;;;;;9.33;100.00;96221.50;5037265;28;20197;-71
2022/09/18 03:29:07;;;;;;;0.73;0.73;;;;;;;9.51;100.00;96224.72;5037878;28;20246;-70
2022/09/18 03:31:34;;;;;;;2.33;1.33;;;;;;;9.43;100.00;96222.13;5038096;28;20197;-70
2022/09/18 03:34:01;;;;;;;3.90;1.53;;;;;;;9.48;100.00;96230.34;5036725;28;20224;-69
2022/09/18 03:36:28;;;;;;;0.60;0.60;;;;;;;9.49;100.00;96231.97;5037855;28;20204;-69
2022/09/18 03:38:55;;;;;;;5.40;1.00;;;;;;;9.43;100.00;96227.41;5037196;28;20225;-70
2022/09/18 03:41:22;;;;;;;10.30;0.90;;;;;;;9.48;100.00;96223.28;5036730;28;20208;-71
2022/09/18 03:43:49;;;;;;;3.63;1.20;;;;;;;9.35;100.00;96219.53;5035233;28;20296;-70
2022/09/18 03:46:21;;;;;;;0.50;0.50;;;;;;;9.44;100.00;96229.84;5036747;28;20201;-69
2022/09/18 03:48:47;;;;;;;4.83;0.97;;;;;;;9.41;100.00;96229.41;5036621;28;20256;-69
2022/09/18 03:51:16;;;;;;;2.37;0.77;;;;;;;9.37;100.00;96233.34;5036463;28;20213;-69
2022/09/18 03:53:44;;;;;;;2.00;1.03;;;;;;;9.27;100.00;96238.78;5035741;28;20295;-71
2022/09/18 03:56:10;;;;;;;1.70;0.90;;;;;;;9.34;100.00;96233.66;5036774;28;20197;-69
2022/09/18 03:58:37;;;;;;;3.50;1.30;;;;;;;9.34;100.00;96234.50;5036225;28;20227;-70
2022/09/18 04:01:03;;;;;;;1.63;0.83;;;;;;;9.38;100.00;96238.44;5036181;28;20207;-69
2022/09/18 04:03:30;;;;;;;1.70;0.93;;;;;;;9.39;100.00;96236.63;5035480;28;20494;-71
2022/09/18 04:05:57;;;;;;;1.87;0.87;;;;;;;9.33;100.00;96234.66;5036179;28;20201;-70
2022/09/18 04:08:25;;;;;;;3.17;0.70;;;;;;;9.35;100.00;96224.81;5033243;28;20239;-69
2022/09/18 04:10:51;;;;;;;1.40;0.90;;;;;;;9.29;100.00;96230.72;5037004;28;20212;-69
2022/09/18 04:13:18;;;;;;;0.77;0.77;;;;;;;9.23;100.00;96228.78;5035446;28;20225;-72
2022/09/18 04:15:48;;;;;;;1.13;0.70;;;;;;;9.31;100.00;96224.31;5036332;28;21179;-70
2022/09/18 04:18:15;;;;;;;20.27;5.43;;;;;;;9.36;100.00;96226.44;5036204;28;20216;-70
2022/09/18 04:20:41;;;;;;;2.47;1.03;;;;;;;9.29;100.00;96222.84;5035588;28;20665;-69
2022/09/18 04:23:10;;;;;;;1.20;0.90;;;;;;;9.27;100.00;96228.28;5035169;28;20209;-71
2022/09/18 04:25:42;;;;;;;3.90;1.20;;;;;;;9.50;100.00;96223.09;5036025;28;20290;-69
2022/09/18 04:28:09;;;;;;;3.37;0.90;;;;;;;9.36;100.00;96216.75;5035427;28;20394;-69
2022/09/18 04:30:35;;;;;;;2.83;1.63;;;;;;;9.39;100.00;96221.66;5036509;28;20201;-69
2022/09/18 04:33:02;;;;;;;0.67;0.67;;;;;;;9.36;100.00;96227.25;5035452;28;20205;-69
2022/09/18 04:35:28;;;;;;;1.07;0.93;;;;;;;9.34;100.00;96229.25;5035866;28;20395;-70
2022/09/18 04:37:55;;;;;;;3.30;1.23;;;;;;;9.40;100.00;96230.38;5036134;28;20225;-71
2022/09/18 04:40:21;;;;;;;1.27;1.00;;;;;;;9.33;100.00;96232.88;5035736;28;20201;-68
2022/09/18 04:42:49;;;;;;;0.50;0.50;;;;;;;9.43;100.00;96232.66;5035710;28;20201;-69
2022/09/18 04:45:16;;;;;;;3.40;1.20;;;;;;;9.38;100.00;96237.59;5035976;28;20672;-69
2022/09/18 04:47:44;;;;;;;4.80;1.20;;;;;;;9.47;100.00;96236.59;5035780;28;20212;-69
2022/09/18 04:50:11;;;;;;;4.20;1.10;;;;;;;9.42;100.00;96239.75;5035291;28;20567;-70
2022/09/18 04:52:37;;;;;;;2.20;0.73;;;;;;;9.37;100.00;96236.00;5035233;28;20249;-70
2022/09/18 04:55:04;;;;;;;1.30;1.20;;;;;;;9.32;100.00;96233.03;5035558;28;20228;-70
2022/09/18 04:57:31;;;;;;;6.20;1.30;;;;;;;9.29;100.00;96242.09;5035950;28;20201;-69
2022/09/18 04:59:59;;;;;;;1.70;0.93;;;;;;;9.33;100.00;96243.38;5034956;28;20202;-72
2022/09/18 05:02:25;;;;;;;8.03;1.30;;;;;;;9.31;100.00;96245.34;5034596;28;20201;-69
2022/09/18 05:04:52;;;;;;;4.77;1.00;;;;;;;9.32;100.00;96248.81;5034795;28;20670;-69
2022/09/18 05:07:19;;;;;;;2.10;1.20;;;;;;;9.34;100.00;96246.81;5034687;28;20499;-72
2022/09/18 05:09:45;;;;;;;3.00;0.87;;;;;;;9.40;100.00;96251.41;5033298;28;20393;-71
2022/09/18 05:12:12;;;;;;;2.00;1.10;;;;;;;9.49;100.00;96258.28;5035374;28;20587;-69
2022/09/18 05:14:39;;;;;;;4.73;1.53;;;;;;;9.44;100.00;96258.78;5035087;28;20617;-69
2022/09/18 05:17:07;;;;;;;2.73;1.27;;;;;;;9.39;100.00;96257.66;5035620;28;20197;-69
2022/09/18 05:19:33;;;;;;;1.33;1.00;;;;;;;9.40;100.00;96267.19;5035551;28;20479;-69
2022/09/18 05:22:00;;;;;;;5.07;1.77;;;;;;;9.29;100.00;96262.28;5035486;28;20365;-69
2022/09/18 05:24:26;;;;;;;8.93;1.17;;;;;;;9.29;100.00;96267.53;5035312;28;20197;-71
2022/09/18 05:26:53;;;;;;;2.70;1.20;;;;;;;9.33;100.00;96258.31;5035058;28;20888;-69
2022/09/18 05:29:19;;;;;;;5.07;1.60;;;;;;;9.34;100.00;96254.72;5035451;28;20228;-71
2022/09/18 05:31:46;;;;;;;4.83;1.00;;;;;;;9.24;100.00;96251.44;5034609;28;20212;-71
2022/09/18 05:34:14;;;;;;;2.77;1.43;;;;;;;9.29;100.00;96255.22;5034913;28;20224;-70
2022/09/18 05:36:40;;;;;;;4.67;1.27;;;;;;;9.23;100.00;96260.34;5035214;28;20213;-69
2022/09/18 05:39:07;;;;;;;2.63;0.80;;;;;;;9.22;100.00;96269.22;5035972;28;20221;-69
2022/09/18 05:41:33;;;;;;;1.77;1.10;;;;;;;9.26;100.00;96267.88;5035928;28;20935;-70
2022/09/18 05:44:00;;;;;;;9.90;0.93;;;;;;;9.24;100.00;96269.84;5035272;28;20201;-69
2022/09/18 05:46:26;;;;;;;6.70;1.47;;;;;;;9.33;100.00;96269.69;5036050;28;20209;-70
2022/09/18 05:48:53;;;;;;;4.17;1.33;;;;;;;9.31;100.00;96260.31;5035338;28;20240;-71
2022/09/18 05:51:20;;;;;;;3.20;1.57;;;;;;;9.42;100.00;96267.81;5034813;28;20205;-71
2022/09/18 05:53:47;;;;;;;3.47;1.23;;;;;;;9.38;100.00;96261.28;5035546;28;20225;-69
2022/09/18 05:56:15;;;;;;;3.40;1.50;;;;;;;9.47;100.00;96266.34;5033050;28;20622;-69
2022/09/18 05:58:42;;;;;;;2.07;1.20;;;;;;;9.42;100.00;96263.41;5035398;28;20229;-70
2022/09/18 06:01:08;;;;;;;3.67;1.37;;;;;;;9.42;100.00;96273.94;5035590;28;20198;-68
2022/09/18 06:03:35;;;;;;;5.07;1.40;;;;;;;9.48;100.00;96268.00;5035107;28;20217;-69
2022/09/18 06:06:01;;;;;;;3.53;1.10;;;;;;;9.47;100.00;96276.88;5038566;28;20201;-68
2022/09/18 06:08:29;;;;;;;2.70;1.00;;;;;;;9.59;100.00;96277.34;5039512;28;20728;-69
2022/09/18 06:11:00;;;;;;;2.43;1.40;;;;;;;9.63;100.00;96276.00;5039474;28;20205;-69
2022/09/18 06:13:27;;;;;;;1.23;0.80;;;;;;;9.45;100.00;96278.03;5038432;28;20220;-69
2022/09/18 06:15:53;;;;;;;3.17;1.83;;;;;;;9.56;100.00;96269.75;5039113;28;20220;-69
2022/09/18 06:18:20;;;;;;;4.83;1.40;;;;;;;9.49;100.00;96282.75;5038758;28;20275;-68
2022/09/18 06:20:52;;;;;;;5.97;1.17;;;;;;;9.64;100.00;96281.09;5039281;28;20201;-68
2022/09/18 06:23:19;;;;;;;1.93;1.07;;;;;;;9.54;100.00;96287.53;5045071;28;20205;-68
2022/09/18 06:25:47;;;;;;;4.23;1.40;;;;;;;9.68;100.00;96275.28;5045150;28;20198;-68
2022/09/18 06:28:13;;;;;;;1.30;0.90;;;;;;;9.67;100.00;96272.03;5045394;28;20217;-69
2022/09/18 06:30:40;;;;;;;1.70;1.30;;;;;;;9.68;100.00;96270.03;5044145;28;20220;-68
2022/09/18 06:33:09;;;;;;;2.80;1.00;;;;;;;9.80;100.00;96273.94;5045108;28;20205;-68
2022/09/18 06:35:37;;;;;;;2.10;0.70;;;;;;;9.78;100.00;96285.63;5045889;28;20232;-69
2022/09/18 06:38:04;;;;;;;3.30;1.00;;;;;;;9.81;100.00;96280.00;5043597;28;20288;-68
2022/09/18 06:40:32;;;;;;;3.93;1.60;;;;;;;9.84;100.00;96280.50;5044872;28;20220;-69
2022/09/18 06:43:01;;;;;;;7.43;1.73;;;;;;;9.98;100.00;96282.44;5044819;28;20820;-68
2022/09/18 06:45:28;;;;;;;8.07;1.40;;;;;;;9.93;100.00;96279.47;5044040;28;20193;-69
2022/09/18 06:47:55;;;;;;;3.13;1.50;;;;;;;9.85;100.00;96282.16;5042890;28;20221;-71
2022/09/18 06:50:22;;;;;;;2.47;1.37;;;;;;;9.91;100.00;96288.53;5038365;28;20209;-72
2022/09/18 06:52:48;;;;;;;3.60;1.70;;;;;;;9.98;100.00;96297.41;5037224;28;20617;-69
2022/09/18 06:55:16;;;;;;;4.97;1.10;;;;;;;10.05;100.00;96293.09;5038587;28;20225;-69
2022/09/18 06:57:42;;;;;;;2.57;1.13;;;;;;;10.03;100.00;96295.91;5038013;28;20201;-68
2022/09/18 07:00:11;;;;;;;1.90;1.43;;;;;;;10.07;100.00;96291.09;5038602;28;20215;-69
2022/09/18 07:02:38;;;;;;;3.57;1.40;;;;;;;9.94;100.00;96296.91;5037889;28;20211;-71
2022/09/18 07:05:04;;;;;;;4.80;1.53;;;;;;;9.89;100.00;96286.06;5038067;28;20212;-69
2022/09/18 07:07:31;;;;;;;7.67;1.70;;;;;;;9.89;100.00;96288.72;5035609;28;20213;-69
2022/09/18 07:09:57;;;;;;;2.13;1.30;;;;;;;9.95;100.00;96282.78;5038229;28;20201;-69
2022/09/18 07:12:24;;;;;;;4.03;1.30;;;;;;;10.00;100.00;96290.16;5037558;28;20198;-70
2022/09/18 07:14:51;;;;;;;7.83;1.60;;;;;;;10.07;100.00;96289.31;5037470;28;20235;-70
2022/09/18 07:17:18;;;;;;;2.97;1.87;;;;;;;10.18;100.00;96293.34;5038360;28;20209;-69
2022/09/18 07:19:45;;;;;;;1.47;1.23;;;;;;;10.16;100.00;96290.09;5036730;28;20312;-69
2022/09/18 07:22:11;;;;;;;5.50;2.20;;;;;;;10.17;100.00;96297.81;5037088;28;20202;-69
2022/09/18 07:24:38;;;;;;;3.40;1.23;;;;;;;10.05;100.00;96298.38;5036817;28;20208;-69
2022/09/18 07:27:04;;;;;;;8.67;1.80;;;;;;;10.04;100.00;96300.19;5037326;28;20205;-69
2022/09/18 07:29:31;;;;;;;3.53;1.87;;;;;;;9.98;100.00;96308.78;5036928;28;20228;-69
2022/09/18 07:31:58;;;;;;;1.80;1.50;;;;;;;10.01;100.00;96303.16;5036480;28;20295;-69
2022/09/18 07:34:27;;;;;;;4.53;1.37;;;;;;;10.06;100.00;96308.72;5036533;28;20316;-69
2022/09/18 07:36:54;;;;;;;3.50;1.70;;;;;;;10.07;100.00;96310.38;5037223;28;20233;-69
2022/09/18 07:39:20;;;;;;;4.57;1.50;;;;;;;9.96;100.00;96313.38;5035332;28;20811;-69
2022/09/18 07:41:46;;;;;;;3.73;1.63;;;;;;;10.10;100.00;96307.38;5037173;28;20702;-69
2022/09/18 07:44:13;;;;;;;0.87;0.80;;;;;;;10.14;100.00;96313.13;5036266;28;20673;-69
2022/09/18 07:46:40;;;;;;;2.37;0.93;;;;;;;10.12;100.00;96308.03;5036755;28;20564;-69
2022/09/18 07:49:06;;;;;;;1.23;0.97;;;;;;;10.10;100.00;96294.22;5037061;28;21310;-69
2022/09/18 07:51:34;;;;;;;5.03;1.20;;;;;;;10.33;100.00;96303.81;5036656;28;20558;-69
2022/09/18 07:54:00;;;;;;;4.53;1.60;;;;;;;10.40;100.00;96309.22;5035794;28;20201;-69
2022/09/18 07:56:27;;;;;;;3.20;1.23;;;;;;;10.27;100.00;96311.56;5032541;28;20206;-69
2022/09/18 07:58:53;;;;;;;1.20;0.73;;;;;;;10.20;100.00;96308.00;5037226;28;20708;-69
2022/09/18 08:01:20;;;;;;;3.67;1.13;;;;;;;10.22;100.00;96320.97;5035701;28;20193;-69
2022/09/18 08:03:46;;;;;;;2.30;1.50;;;;;;;10.19;100.00;96311.63;5034783;28;20209;-69
2022/09/18 08:06:13;;;;;;;2.73;1.37;;;;;;;10.15;100.00;96315.59;5036259;28;20198;-69
2022/09/18 08:08:41;;;;;;;5.43;1.80;;;;;;;10.29;100.00;96312.22;5033515;28;20232;-69
2022/09/18 08:11:07;;;;;;;2.33;1.00;;;;;;;10.13;100.00;96317.59;5035197;28;20205;-70
2022/09/18 08:13:34;;;;;;;1.60;1.20;;;;;;;10.28;100.00;96309.78;5035731;28;20201;-68
2022/09/18 08:16:03;;;;;;;1.47;1.10;;;;;;;10.48;100.00;96322.31;5035691;28;20228;-69
2022/09/18 08:18:29;;;;;;;4.93;1.70;;;;;;;10.57;100.00;96316.81;5035719;28;20236;-69
2022/09/18 08:20:56;;;;;;;0.73;0.70;;;;;;;10.56;100.00;96315.16;5035551;28;20332;-68
2022/09/18 08:23:23;;;;;;;4.03;1.67;;;;;;;10.62;100.00;96319.75;5035041;28;21315;-69
2022/09/18 08:25:51;;;;;;;2.27;1.30;;;;;;;10.73;100.00;96322.00;5035970;28;20235;-69
2022/09/18 08:28:18;;;;;;;2.40;1.33;;;;;;;10.81;100.00;96321.91;5030557;28;20216;-69
2022/09/18 08:30:44;;;;;;;6.53;1.83;;;;;;;10.88;100.00;96325.47;5034559;28;20310;-69
2022/09/18 08:33:11;;;;;;;2.33;1.20;;;;;;;10.73;100.00;96322.00;5034107;28;20208;-69
2022/09/18 08:35:38;;;;;;;6.93;2.13;;;;;;;10.74;100.00;96318.34;5035608;28;20262;-69
2022/09/18 08:38:04;;;;;;;1.93;1.40;;;;;;;10.82;100.00;96320.09;5034799;28;20225;-69
2022/09/18 08:40:53;;;;;;;2.30;0.80;;;;;;;10.96;100.00;96328.06;5035843;28;20923;-69
2022/09/18 08:43:33;;;;;;;5.60;2.63;;;;;;;10.92;100.00;96332.06;5033865;28;20201;-69
2022/09/18 08:46:04;;;;;;;1.30;1.20;;;;;;;10.94;100.00;96319.50;5035336;28;20201;-69
2022/09/18 08:48:35;;;;;;;4.50;0.93;;;;;;;11.05;100.00;96319.09;5034563;28;20634;-69
2022/09/18 08:51:06;;;;;;;1.77;0.90;;;;;;;11.21;100.00;96324.22;5034945;28;20772;-69
2022/09/18 08:53:36;;;;;;;3.07;1.00;;;;;;;11.15;100.00;96312.56;5034220;28;20201;-69
2022/09/18 08:56:12;;;;;;;5.43;0.87;;;;;;;11.27;100.00;96312.97;5035018;28;20227;-69
2022/09/18 08:58:46;;;;;;;1.33;0.97;;;;;;;11.39;100.00;96314.16;5034626;28;20563;-69
2022/09/18 09:01:17;;;;;;;2.57;1.60;;;;;;;11.34;100.00;96314.72;5035754;28;20200;-68
2022/09/18 09:03:51;;;;;;;3.93;0.93;;;;;;;11.75;100.00;96308.03;5034513;28;20699;-69
2022/09/18 09:06:31;;;;;;;2.10;1.33;;;;;;;11.82;100.00;96303.66;5034766;28;20556;-69
2022/09/18 09:09:15;;;;;;;1.47;0.90;;;;;;;11.81;100.00;96309.94;5035411;28;20268;-69
2022/09/18 09:11:49;;;;;;;1.70;0.97;;;;;;;11.83;100.00;96310.56;5036126;28;20382;-68
2022/09/18 09:14:44;;;;;;;1.73;0.77;;;;;;;11.86;100.00;96320.75;5033913;28;20200;-69
2022/09/18 09:17:17;;;;;;;4.00;0.67;;;;;;;11.78;100.00;96310.31;5034385;28;20212;-68
2022/09/18 09:19:53;;;;;;;0.80;0.80;;;;;;;11.78;100.00;96307.66;5031527;28;20286;-69
2022/09/18 09:22:24;;;;;;;0.60;0.50;;;;;;;11.59;97.69;96305.56;5034160;28;20539;-69
2022/09/18 09:25:03;;;;;;;0.83;0.60;;;;;;;11.82;99.50;96311.56;5034251;28;20197;-69
2022/09/18 09:27:35;;;;;;;1.17;0.80;;;;;;;11.80;100.00;96313.56;5034643;28;20208;-69
2022/09/18 09:30:06;;;;;;;1.67;0.90;;;;;;;11.69;97.96;96312.19;5034829;28;20201;-69
2022/09/18 09:32:38;;;;;;;0.70;0.50;;;;;;;11.62;97.51;96315.75;5034407;28;20201;-69
2022/09/18 09:35:20;;;;;;;0.70;0.47;;;;;;;11.62;97.37;96315.75;5035706;28;20224;-69
2022/09/18 09:37:50;;;;;;;2.27;0.90;;;;;;;11.55;96.60;96328.03;5034936;28;20209;-69
2022/09/18 09:40:20;;;;;;;3.50;1.27;;;;;;;11.52;97.47;96320.50;5034857;28;20673;-69
2022/09/18 09:42:52;;;;;;;0.27;0.27;;;;;;;11.60;98.25;96323.84;5038684;28;20558;-69
2022/09/18 09:45:27;;;;;;;1.20;0.83;;;;;;;11.61;96.82;96314.13;5039200;28;20204;-69
2022/09/18 09:48:01;;;;;;;2.30;0.77;;;;;;;11.61;97.29;96311.50;5038606;28;20750;-69
2022/09/18 09:50:43;;;;;;;1.83;0.60;;;;;;;11.72;97.11;96316.31;5039140;28;20270;-69
2022/09/18 09:53:12;;;;;;;3.43;0.70;;;;;;;11.75;95.52;96321.25;5038765;28;20212;-69
2022/09/18 09:55:48;;;;;;;0.70;0.60;;;;;;;11.86;96.27;96310.19;5038962;28;20236;-69
2022/09/18 09:58:25;;;;;;;0.90;0.70;;;;;;;11.87;94.96;96315.28;5039075;28;20626;-69
2022/09/18 10:01:05;;;;;;;0.83;0.67;;;;;;;12.07;95.30;96320.88;5039201;28;20208;-69
2022/09/18 10:03:41;;;;;;;1.87;0.80;;;;;;;11.95;94.51;96312.59;5037961;28;20208;-69
2022/09/18 10:06:28;;;;;;;0.60;0.60;;;;;;;12.02;94.60;96308.19;5038942;28;20199;-69
2022/09/18 10:08:58;;;;;;;0.80;0.60;;;;;;;12.06;94.89;96324.50;5038611;28;20530;-69
2022/09/18 10:11:25;;;;;;;0.93;0.63;;;;;;;11.95;95.82;96317.88;5039204;28;20312;-69
2022/09/18 10:13:58;;;;;;;2.73;0.60;;;;;;;12.08;95.38;96322.47;5037876;28;20202;-69
2022/09/18 10:16:32;;;;;;;1.07;0.70;;;;;;;12.16;95.48;96314.47;5038658;28;20220;-69
2022/09/18 10:18:59;;;;;;;1.17;0.60;;;;;;;12.01;95.23;96311.81;5035311;28;20344;-69
2022/09/18 10:21:33;;;;;;;2.07;0.93;;;;;;;11.85;93.98;96312.03;5039243;28;20331;-68
2022/09/18 10:24:09;;;;;;;2.33;0.73;;;;;;;12.14;95.03;96316.47;5038092;28;20202;-69
2022/09/18 10:26:40;;;;;;;1.60;0.97;;;;;;;12.26;94.05;96310.53;5038529;28;20196;-68
2022/09/18 10:29:09;;;;;;;0.67;0.53;;;;;;;12.42;92.57;96305.00;5039875;28;20228;-70
2022/09/18 10:31:51;;;;;;;0.70;0.70;;;;;;;12.59;91.44;96311.69;5038739;28;20208;-69
2022/09/18 10:34:34;;;;;;;0.93;0.57;;;;;;;12.75;91.09;96299.06;5038433;28;20205;-69
2022/09/18 10:37:01;;;;;;;0.77;0.60;;;;;;;12.71;91.72;96311.03;5036811;28;20217;-68
2022/09/18 10:39:29;;;;;;;0.60;0.50;;;;;;;12.79;90.07;96305.59;5039084;28;20232;-69
2022/09/18 10:42:00;;;;;;;1.37;0.77;;;;;;;12.92;89.64;96327.75;5038070;28;20319;-69
2022/09/18 10:44:30;;;;;;;1.10;1.00;;;;;;;12.71;88.55;96304.94;5038459;28;20233;-69
2022/09/18 10:47:03;;;;;;;1.73;0.95;;;;;;;12.88;89.79;96309.78;5038591;28;20197;-69
2022/09/18 10:49:34;;;;;;;0.87;0.80;;;;;;;13.01;88.68;96325.81;5037881;28;20229;-69
2022/09/18 10:52:20;;;;;;;0.50;0.50;;;;;;;12.84;87.19;96317.28;5037913;28;20286;-69
2022/09/18 10:54:58;;;;;;;0.53;0.53;;;;;;;13.02;89.09;96315.03;5038044;28;21021;-69
2022/09/18 10:57:27;;;;;;;0.60;0.50;;;;;;;12.85;87.72;96318.09;5038432;28;20201;-69
2022/09/18 10:59:54;;;;;;;0.40;0.40;;;;;;;12.79;89.46;96310.91;5038259;28;20253;-71
2022/09/18 11:02:25;;;;;;;0.53;0.50;;;;;;;13.01;89.64;96315.22;5037252;28;20198;-71
2022/09/18 11:04:52;;;;;;;1.67;0.60;;;;;;;12.98;87.78;96303.19;5037846;28;20302;-70
2022/09/18 11:07:20;;;;;;;1.50;0.70;;;;;;;12.95;86.57;96321.28;5038027;28;20232;-71
2022/09/18 11:09:47;;;;;;;0.70;0.70;;;;;;;12.91;87.29;96304.16;5038882;28;20228;-70
2022/09/18 11:12:16;;;;;;;0.82;0.60;;;;;;;13.00;86.12;96310.94;5037573;28;20197;-72
2022/09/18 11:14:46;;;;;;;0.60;0.60;;;;;;;12.99;84.70;96304.81;5036026;28;20213;-69
2022/09/18 11:17:24;;;;;;;1.33;0.63;;;;;;;13.15;85.44;96301.09;5036430;28;20232;-70
2022/09/18 11:19:54;;;;;;;2.03;0.63;;;;;;;13.01;82.05;96291.44;5033214;28;20232;-71
2022/09/18 11:22:33;;;;;;;3.33;0.50;;;;;;;13.17;79.61;96291.13;5036663;28;20208;-72
2022/09/18 11:25:15;;;;;;;5.67;1.00;;;;;;;13.16;78.93;96285.03;5036959;28;20201;-70
2022/09/18 11:27:47;;;;;;;0.63;0.43;;;;;;;13.26;78.04;96290.78;5034976;28;20228;-70
2022/09/18 11:30:16;;;;;;;5.07;0.70;;;;;;;13.28;78.69;96290.63;5036507;28;20213;-71
2022/09/18 11:32:48;;;;;;;1.48;0.65;;;;;;;13.44;79.09;96291.97;5035892;28;20205;-70
2022/09/18 11:35:17;;;;;;;1.27;1.03;;;;;;;13.43;79.61;96292.16;5036859;28;20994;-71
2022/09/18 11:37:48;;;;;;;3.33;0.80;;;;;;;13.71;78.91;96290.28;5035957;28;20197;-71
2022/09/18 11:40:19;;;;;;;5.13;0.70;;;;;;;13.74;77.52;96280.13;5037039;28;20613;-70
2022/09/18 11:42:47;;;;;;;1.90;0.55;;;;;;;13.75;77.15;96281.78;5035752;28;20211;-72